sensor_id;sensor_type;location;lat;lon;timestamp;pressure;altitude;pressure_sealevel;temperature;humidity
57024;BME280;42916;54.346;18.562;2023-02-15T00:01:47;102150.77;;;2.97;99.73
57024;BME280;42916;54.346;18.562;2023-02-15T00:04:33;102151.70;;;2.97;99.45
57024;BME280;42916;54.346;18.562;2023-02-15T00:07:18;102149.33;;;2.97;99.17
57024;BME280;42916;54.346;18.562;2023-02-15T00:10:24;102144.96;;;3.01;99.19
57024;BME280;42916;54.346;18.562;2023-02-15T00:13:38;102144.08;;;3.06;99.25
57024;BME280;42916;54.346;18.562;2023-02-15T00:16:10;102143.79;;;3.09;99.39
57024;BME280;42916;54.346;18.562;2023-02-15T00:22:16;102143.11;;;3.12;99.18
57024;BME280;42916;54.346;18.562;2023-02-15T00:25:23;102143.77;;;3.09;99.09
57024;BME280;42916;54.346;18.562;2023-02-15T00:27:58;102143.60;;;3.06;98.93
57024;BME280;42916;54.346;18.562;2023-02-15T00:34:06;102135.83;;;3.03;98.66
57024;BME280;42916;54.346;18.562;2023-02-15T00:36:47;102129.88;;;3.03;98.60
57024;BME280;42916;54.346;18.562;2023-02-15T00:39:18;102127.86;;;3.06;98.44
57024;BME280;42916;54.346;18.562;2023-02-15T00:42:04;102124.52;;;3.08;99.00
57024;BME280;42916;54.346;18.562;2023-02-15T00:47:47;102118.48;;;3.11;98.93
57024;BME280;42916;54.346;18.562;2023-02-15T00:50:17;102117.48;;;3.08;98.54
57024;BME280;42916;54.346;18.562;2023-02-15T00:52:46;102116.98;;;3.05;98.64
57024;BME280;42916;54.346;18.562;2023-02-15T00:55:24;102112.64;;;2.96;98.28
57024;BME280;42916;54.346;18.562;2023-02-15T00:58:34;102106.98;;;2.91;98.51
57024;BME280;42916;54.346;18.562;2023-02-15T01:01:19;102105.27;;;2.89;98.23
57024;BME280;42916;54.346;18.562;2023-02-15T01:04:26;102108.11;;;2.89;98.51
57024;BME280;42916;54.346;18.562;2023-02-15T01:07:53;102104.74;;;2.85;98.22
57024;BME280;42916;54.346;18.562;2023-02-15T01:10:43;102101.41;;;2.81;98.54
57024;BME280;42916;54.346;18.562;2023-02-15T01:13:36;102099.72;;;2.80;98.75
57024;BME280;42916;54.346;18.562;2023-02-15T01:16:26;102100.86;;;2.78;98.67
57024;BME280;42916;54.346;18.562;2023-02-15T01:18:59;102099.52;;;2.77;99.17
57024;BME280;42916;54.346;18.562;2023-02-15T01:21:36;102097.79;;;2.77;99.00
57024;BME280;42916;54.346;18.562;2023-02-15T01:24:18;102093.09;;;2.78;99.01
57024;BME280;42916;54.346;18.562;2023-02-15T01:27:23;102093.50;;;2.78;98.78
57024;BME280;42916;54.346;18.562;2023-02-15T01:30:43;102089.77;;;2.76;98.94
57024;BME280;42916;54.346;18.562;2023-02-15T01:33:17;102083.82;;;2.71;99.13
57024;BME280;42916;54.346;18.562;2023-02-15T01:35:54;102080.73;;;2.70;99.27
57024;BME280;42916;54.346;18.562;2023-02-15T01:41:45;102079.38;;;2.71;99.59
57024;BME280;42916;54.346;18.562;2023-02-15T01:44:49;102079.80;;;2.72;99.47
57024;BME280;42916;54.346;18.562;2023-02-15T01:48:25;102078.17;;;2.73;99.62
57024;BME280;42916;54.346;18.562;2023-02-15T01:51:08;102076.58;;;2.73;99.70
57024;BME280;42916;54.346;18.562;2023-02-15T01:57:51;102077.50;;;2.68;99.86
57024;BME280;42916;54.346;18.562;2023-02-15T02:00:43;102074.14;;;2.68;100.00
57024;BME280;42916;54.346;18.562;2023-02-15T02:03:34;102068.34;;;2.70;99.95
57024;BME280;42916;54.346;18.562;2023-02-15T02:06:11;102064.65;;;2.71;99.91
57024;BME280;42916;54.346;18.562;2023-02-15T02:09:02;102064.46;;;2.73;99.97
57024;BME280;42916;54.346;18.562;2023-02-15T02:11:32;102073.17;;;2.78;100.00
57024;BME280;42916;54.346;18.562;2023-02-15T02:14:23;102062.66;;;2.79;100.00
57024;BME280;42916;54.346;18.562;2023-02-15T02:24:52;102058.60;;;2.69;100.00
57024;BME280;42916;54.346;18.562;2023-02-15T02:37:00;102037.30;;;2.69;100.00
57024;BME280;42916;54.346;18.562;2023-02-15T02:47:12;102033.73;;;2.65;100.00
57024;BME280;42916;54.346;18.562;2023-02-15T02:53:10;102034.00;;;2.64;100.00
57024;BME280;42916;54.346;18.562;2023-02-15T02:57:08;102033.38;;;2.61;100.00
57024;BME280;42916;54.346;18.562;2023-02-15T03:06:46;102024.37;;;2.57;100.00
57024;BME280;42916;54.346;18.562;2023-02-15T03:09:39;102026.52;;;2.55;100.00
57024;BME280;42916;54.346;18.562;2023-02-15T03:15:39;102020.36;;;2.49;100.00
57024;BME280;42916;54.346;18.562;2023-02-15T03:22:25;102012.56;;;2.43;100.00
57024;BME280;42916;54.346;18.562;2023-02-15T03:25:44;102009.64;;;2.44;100.00
57024;BME280;42916;54.346;18.562;2023-02-15T03:28:55;102007.29;;;2.44;100.00
57024;BME280;42916;54.346;18.562;2023-02-15T03:32:22;102006.86;;;2.46;100.00
57024;BME280;42916;54.346;18.562;2023-02-15T03:35:07;102001.72;;;2.46;100.00
57024;BME280;42916;54.346;18.562;2023-02-15T03:38:19;102006.02;;;2.44;100.00
57024;BME280;42916;54.346;18.562;2023-02-15T03:44:24;102001.66;;;2.47;100.00
57024;BME280;42916;54.346;18.562;2023-02-15T03:47:49;102001.04;;;2.51;100.00
57024;BME280;42916;54.346;18.562;2023-02-15T03:54:00;101992.32;;;2.57;100.00
57024;BME280;42916;54.346;18.562;2023-02-15T04:00:52;101992.21;;;2.56;100.00
57024;BME280;42916;54.346;18.562;2023-02-15T04:04:53;101992.60;;;2.58;100.00
57024;BME280;42916;54.346;18.562;2023-02-15T04:07:00;101992.54;;;2.61;100.00
57024;BME280;42916;54.346;18.562;2023-02-15T04:09:56;101985.42;;;2.63;100.00
57024;BME280;42916;54.346;18.562;2023-02-15T04:13:03;101988.66;;;2.64;100.00
57024;BME280;42916;54.346;18.562;2023-02-15T04:15:30;101986.64;;;2.65;100.00
57024;BME280;42916;54.346;18.562;2023-02-15T04:18:36;101982.16;;;2.63;100.00
57024;BME280;42916;54.346;18.562;2023-02-15T04:21:31;101981.08;;;2.58;100.00
57024;BME280;42916;54.346;18.562;2023-02-15T04:24:36;101983.69;;;2.57;100.00
57024;BME280;42916;54.346;18.562;2023-02-15T04:27:40;101980.90;;;2.57;100.00
57024;BME280;42916;54.346;18.562;2023-02-15T04:30:31;101986.75;;;2.57;100.00
57024;BME280;42916;54.346;18.562;2023-02-15T04:33:20;101983.73;;;2.60;100.00
57024;BME280;42916;54.346;18.562;2023-02-15T04:42:25;101973.70;;;2.65;100.00
57024;BME280;42916;54.346;18.562;2023-02-15T04:48:09;101969.17;;;2.66;100.00
57024;BME280;42916;54.346;18.562;2023-02-15T04:50:55;101970.25;;;2.67;100.00
57024;BME280;42916;54.346;18.562;2023-02-15T04:53:54;101966.66;;;2.71;100.00
57024;BME280;42916;54.346;18.562;2023-02-15T04:56:27;101963.81;;;2.72;100.00
57024;BME280;42916;54.346;18.562;2023-02-15T04:59:13;101965.19;;;2.75;100.00
57024;BME280;42916;54.346;18.562;2023-02-15T05:01:40;101966.14;;;2.74;100.00
57024;BME280;42916;54.346;18.562;2023-02-15T05:10:48;101958.30;;;2.69;100.00
57024;BME280;42916;54.346;18.562;2023-02-15T05:13:20;101963.51;;;2.67;100.00
57024;BME280;42916;54.346;18.562;2023-02-15T05:15:56;101960.98;;;2.67;100.00
57024;BME280;42916;54.346;18.562;2023-02-15T05:18:34;101960.02;;;2.69;100.00
57024;BME280;42916;54.346;18.562;2023-02-15T05:21:13;101955.95;;;2.72;100.00
57024;BME280;42916;54.346;18.562;2023-02-15T05:23:59;101955.79;;;2.77;100.00
57024;BME280;42916;54.346;18.562;2023-02-15T05:26:54;101950.92;;;2.79;100.00
57024;BME280;42916;54.346;18.562;2023-02-15T05:35:51;101951.27;;;2.79;100.00
57024;BME280;42916;54.346;18.562;2023-02-15T05:38:29;101950.62;;;2.77;100.00
57024;BME280;42916;54.346;18.562;2023-02-15T05:41:16;101946.76;;;2.76;100.00
57024;BME280;42916;54.346;18.562;2023-02-15T05:44:08;101941.95;;;2.76;100.00
57024;BME280;42916;54.346;18.562;2023-02-15T05:46:47;101941.95;;;2.79;100.00
57024;BME280;42916;54.346;18.562;2023-02-15T05:49:16;101945.08;;;2.78;100.00
57024;BME280;42916;54.346;18.562;2023-02-15T05:52:04;101947.09;;;2.76;100.00
57024;BME280;42916;54.346;18.562;2023-02-15T05:54:33;101950.15;;;2.73;100.00
57024;BME280;42916;54.346;18.562;2023-02-15T05:57:03;101946.17;;;2.72;100.00
57024;BME280;42916;54.346;18.562;2023-02-15T05:59:39;101944.30;;;2.71;100.00
57024;BME280;42916;54.346;18.562;2023-02-15T06:02:06;101936.77;;;2.72;100.00
57024;BME280;42916;54.346;18.562;2023-02-15T06:04:33;101938.95;;;2.75;100.00
57024;BME280;42916;54.346;18.562;2023-02-15T06:07:08;101934.63;;;2.77;100.00
57024;BME280;42916;54.346;18.562;2023-02-15T06:10:05;101931.85;;;2.80;100.00
57024;BME280;42916;54.346;18.562;2023-02-15T06:12:35;101934.70;;;2.81;100.00
57024;BME280;42916;54.346;18.562;2023-02-15T06:15:19;101932.45;;;2.79;100.00
57024;BME280;42916;54.346;18.562;2023-02-15T06:17:49;101930.07;;;2.78;100.00
57024;BME280;42916;54.346;18.562;2023-02-15T06:23:33;101931.79;;;2.79;100.00
57024;BME280;42916;54.346;18.562;2023-02-15T06:26:00;101933.36;;;2.81;100.00
57024;BME280;42916;54.346;18.562;2023-02-15T06:28:30;101936.83;;;2.83;100.00
57024;BME280;42916;54.346;18.562;2023-02-15T06:33:58;101933.30;;;2.89;100.00
57024;BME280;42916;54.346;18.562;2023-02-15T06:37:03;101933.56;;;2.89;100.00
57024;BME280;42916;54.346;18.562;2023-02-15T06:46:34;101932.61;;;2.84;100.00
57024;BME280;42916;54.346;18.562;2023-02-15T06:53:01;101927.83;;;2.87;100.00
57024;BME280;42916;54.346;18.562;2023-02-15T06:56:18;101925.84;;;2.87;100.00
57024;BME280;42916;54.346;18.562;2023-02-15T07:03:24;101921.16;;;2.82;100.00
57024;BME280;42916;54.346;18.562;2023-02-15T07:10:07;101915.70;;;2.87;100.00
57024;BME280;42916;54.346;18.562;2023-02-15T07:13:35;101912.15;;;2.90;100.00
57024;BME280;42916;54.346;18.562;2023-02-15T07:16:10;101908.53;;;2.93;100.00
57024;BME280;42916;54.346;18.562;2023-02-15T07:48:16;101895.06;;;3.07;100.00
57024;BME280;42916;54.346;18.562;2023-02-15T07:55:13;101886.42;;;3.04;100.00
57024;BME280;42916;54.346;18.562;2023-02-15T08:09:08;101867.23;;;3.14;100.00
57024;BME280;42916;54.346;18.562;2023-02-15T08:12:14;101860.74;;;3.12;100.00
57024;BME280;42916;54.346;18.562;2023-02-15T08:45:06;101842.50;;;3.54;100.00
57024;BME280;42916;54.346;18.562;2023-02-15T08:51:59;101835.14;;;3.60;100.00
57024;BME280;42916;54.346;18.562;2023-02-15T09:05:34;101819.40;;;3.75;99.91
57024;BME280;42916;54.346;18.562;2023-02-15T09:08:39;101819.16;;;3.78;99.83
57024;BME280;42916;54.346;18.562;2023-02-15T09:15:31;101812.81;;;3.75;99.76
57024;BME280;42916;54.346;18.562;2023-02-15T09:18:55;101811.43;;;3.73;99.57
57024;BME280;42916;54.346;18.562;2023-02-15T09:29:24;101810.08;;;3.77;98.89
57024;BME280;42916;54.346;18.562;2023-02-15T09:47:05;101805.11;;;3.57;97.20
57024;BME280;42916;54.346;18.562;2023-02-15T10:57:25;101746.14;;;4.22;92.75
57024;BME280;42916;54.346;18.562;2023-02-15T11:00:41;101744.40;;;4.26;92.39
57024;BME280;42916;54.346;18.562;2023-02-15T11:03:47;101736.86;;;4.36;92.20
57024;BME280;42916;54.346;18.562;2023-02-15T11:06:39;101736.04;;;4.40;91.98
57024;BME280;42916;54.346;18.562;2023-02-15T11:12:55;101728.48;;;4.47;91.31
57024;BME280;42916;54.346;18.562;2023-02-15T11:16:17;101722.65;;;4.51;91.11
57024;BME280;42916;54.346;18.562;2023-02-15T11:19:48;101716.60;;;4.55;91.13
57024;BME280;42916;54.346;18.562;2023-02-15T11:22:49;101710.61;;;4.62;91.15
57024;BME280;42916;54.346;18.562;2023-02-15T11:38:29;101702.91;;;4.80;89.79
57024;BME280;42916;54.346;18.562;2023-02-15T11:48:04;101693.00;;;4.93;89.08
57024;BME280;42916;54.346;18.562;2023-02-15T11:50:47;101687.30;;;4.93;88.86
57024;BME280;42916;54.346;18.562;2023-02-15T12:04:53;101672.11;;;5.11;88.28
57024;BME280;42916;54.346;18.562;2023-02-15T12:07:39;101668.78;;;5.14;87.91
57024;BME280;42916;54.346;18.562;2023-02-15T12:13:58;101660.60;;;5.17;87.57
57024;BME280;42916;54.346;18.562;2023-02-15T12:17:24;101656.60;;;5.14;87.31
57024;BME280;42916;54.346;18.562;2023-02-15T12:20:00;101654.33;;;5.13;86.75
57024;BME280;42916;54.346;18.562;2023-02-15T12:23:14;101653.49;;;5.15;86.59
57024;BME280;42916;54.346;18.562;2023-02-15T12:28:33;101649.29;;;5.27;86.66
57024;BME280;42916;54.346;18.562;2023-02-15T12:32:01;101643.02;;;5.33;86.34
57024;BME280;42916;54.346;18.562;2023-02-15T12:35:01;101645.05;;;5.32;86.02
57024;BME280;42916;54.346;18.562;2023-02-15T12:37:58;101644.95;;;5.33;85.92
57024;BME280;42916;54.346;18.562;2023-02-15T12:40:31;101643.67;;;5.34;85.47
57024;BME280;42916;54.346;18.562;2023-02-15T12:43:00;101639.05;;;5.33;85.54
57024;BME280;42916;54.346;18.562;2023-02-15T12:45:37;101640.77;;;5.32;85.34
57024;BME280;42916;54.346;18.562;2023-02-15T12:48:08;101639.52;;;5.34;85.16
57024;BME280;42916;54.346;18.562;2023-02-15T12:50:36;101639.35;;;5.34;84.87
57024;BME280;42916;54.346;18.562;2023-02-15T12:53:31;101637.23;;;5.32;84.76
57024;BME280;42916;54.346;18.562;2023-02-15T12:56:26;101636.98;;;5.34;85.04
57024;BME280;42916;54.346;18.562;2023-02-15T13:13:21;101609.86;;;5.56;84.29
57024;BME280;42916;54.346;18.562;2023-02-15T13:20:42;101605.13;;;5.70;84.59
57024;BME280;42916;54.346;18.562;2023-02-15T13:23:40;101608.69;;;5.82;84.38
57024;BME280;42916;54.346;18.562;2023-02-15T13:53:56;101582.73;;;6.40;82.68
57024;BME280;42916;54.346;18.562;2023-02-15T14:12:31;101558.10;;;6.80;80.22
57024;BME280;42916;54.346;18.562;2023-02-15T14:51:05;101521.27;;;5.44;81.39
57024;BME280;42916;54.346;18.562;2023-02-15T14:53:33;101525.84;;;5.41;81.71
57024;BME280;42916;54.346;18.562;2023-02-15T14:56:35;101518.27;;;5.35;81.89
57024;BME280;42916;54.346;18.562;2023-02-15T15:00:00;101516.73;;;5.26;81.82
57024;BME280;42916;54.346;18.562;2023-02-15T15:37:48;101485.90;;;3.99;85.23
57024;BME280;42916;54.346;18.562;2023-02-15T15:40:38;101484.57;;;3.88;85.51
57024;BME280;42916;54.346;18.562;2023-02-15T15:49:16;101491.08;;;3.68;86.10
57024;BME280;42916;54.346;18.562;2023-02-15T15:52:00;101488.20;;;3.63;86.46
57024;BME280;42916;54.346;18.562;2023-02-15T15:55:15;101483.60;;;3.55;86.79
57024;BME280;42916;54.346;18.562;2023-02-15T15:58:05;101479.50;;;3.47;87.07
57024;BME280;42916;54.346;18.562;2023-02-15T16:04:26;101472.21;;;3.31;87.64
57024;BME280;42916;54.346;18.562;2023-02-15T16:06:57;101468.40;;;3.26;87.94
57024;BME280;42916;54.346;18.562;2023-02-15T16:09:40;101465.44;;;3.20;87.97
57024;BME280;42916;54.346;18.562;2023-02-15T16:12:15;101463.08;;;3.18;87.95
57024;BME280;42916;54.346;18.562;2023-02-15T16:15:16;101459.79;;;3.15;88.20
57024;BME280;42916;54.346;18.562;2023-02-15T16:17:43;101458.95;;;3.12;88.10
57024;BME280;42916;54.346;18.562;2023-02-15T16:27:28;101450.61;;;2.94;89.34
57024;BME280;42916;54.346;18.562;2023-02-15T16:33:38;101443.91;;;2.87;89.48
57024;BME280;42916;54.346;18.562;2023-02-15T16:36:28;101442.06;;;2.83;89.79
57024;BME280;42916;54.346;18.562;2023-02-15T16:39:17;101448.89;;;2.76;89.80
57024;BME280;42916;54.346;18.562;2023-02-15T16:44:36;101438.83;;;2.64;90.39
57024;BME280;42916;54.346;18.562;2023-02-15T16:47:32;101436.35;;;2.57;90.85
57024;BME280;42916;54.346;18.562;2023-02-15T16:50:02;101435.29;;;2.54;90.89
57024;BME280;42916;54.346;18.562;2023-02-15T16:58:36;101428.22;;;2.46;91.11
57024;BME280;42916;54.346;18.562;2023-02-15T17:01:07;101422.90;;;2.42;91.64
57024;BME280;42916;54.346;18.562;2023-02-15T17:03:57;101422.77;;;2.37;91.45
57024;BME280;42916;54.346;18.562;2023-02-15T17:07:04;101418.67;;;2.29;91.79
57024;BME280;42916;54.346;18.562;2023-02-15T17:09:55;101418.60;;;2.23;91.83
57024;BME280;42916;54.346;18.562;2023-02-15T17:23:42;101411.77;;;1.97;93.02
57024;BME280;42916;54.346;18.562;2023-02-15T17:26:48;101418.56;;;1.92;92.77
57024;BME280;42916;54.346;18.562;2023-02-15T17:33:59;101421.98;;;1.84;93.29
57024;BME280;42916;54.346;18.562;2023-02-15T17:54:10;101399.33;;;1.55;94.28
57024;BME280;42916;54.346;18.562;2023-02-15T17:57:57;101393.56;;;1.50;94.74
57024;BME280;42916;54.346;18.562;2023-02-15T18:01:05;101384.02;;;1.46;95.11
57024;BME280;42916;54.346;18.562;2023-02-15T18:03:52;101379.02;;;1.42;95.44
57024;BME280;42916;54.346;18.562;2023-02-15T18:06:39;101379.60;;;1.42;95.39
57024;BME280;42916;54.346;18.562;2023-02-15T18:10:03;101381.02;;;1.42;95.55
57024;BME280;42916;54.346;18.562;2023-02-15T18:13:16;101384.75;;;1.42;95.74
57024;BME280;42916;54.346;18.562;2023-02-15T18:15:45;101379.34;;;1.43;95.99
57024;BME280;42916;54.346;18.562;2023-02-15T18:18:22;101376.28;;;1.44;96.40
57024;BME280;42916;54.346;18.562;2023-02-15T18:20:49;101371.33;;;1.46;96.58
57024;BME280;42916;54.346;18.562;2023-02-15T18:23:16;101374.80;;;1.46;96.75
57024;BME280;42916;54.346;18.562;2023-02-15T18:25:44;101372.48;;;1.50;96.74
57024;BME280;42916;54.346;18.562;2023-02-15T18:28:16;101367.91;;;1.54;96.59
57024;BME280;42916;54.346;18.562;2023-02-15T18:30:43;101366.63;;;1.58;96.63
57024;BME280;42916;54.346;18.562;2023-02-15T18:33:41;101374.44;;;1.61;96.68
57024;BME280;42916;54.346;18.562;2023-02-15T18:36:25;101372.81;;;1.65;97.02
57024;BME280;42916;54.346;18.562;2023-02-15T18:38:54;101367.50;;;1.67;97.11
57024;BME280;42916;54.346;18.562;2023-02-15T18:41:22;101362.70;;;1.70;97.25
57024;BME280;42916;54.346;18.562;2023-02-15T18:43:50;101356.71;;;1.73;97.37
57024;BME280;42916;54.346;18.562;2023-02-15T18:46:18;101360.04;;;1.75;97.51
57024;BME280;42916;54.346;18.562;2023-02-15T18:48:57;101361.33;;;1.79;97.08
57024;BME280;42916;54.346;18.562;2023-02-15T18:51:30;101365.35;;;1.85;97.13
57024;BME280;42916;54.346;18.562;2023-02-15T18:54:20;101358.20;;;1.90;97.02
57024;BME280;42916;54.346;18.562;2023-02-15T18:56:54;101353.48;;;1.93;97.38
57024;BME280;42916;54.346;18.562;2023-02-15T18:59:38;101336.04;;;1.96;97.30
57024;BME280;42916;54.346;18.562;2023-02-15T19:02:15;101338.58;;;1.97;97.27
57024;BME280;42916;54.346;18.562;2023-02-15T19:05:05;101348.40;;;1.97;97.25
57024;BME280;42916;54.346;18.562;2023-02-15T19:07:36;101353.42;;;1.99;97.07
57024;BME280;42916;54.346;18.562;2023-02-15T19:13:54;101366.25;;;2.05;96.97
57024;BME280;42916;54.346;18.562;2023-02-15T19:16:28;101368.17;;;2.07;97.05
57024;BME280;42916;54.346;18.562;2023-02-15T19:18:55;101362.67;;;2.09;97.21
57024;BME280;42916;54.346;18.562;2023-02-15T19:21:31;101354.02;;;2.09;97.24
57024;BME280;42916;54.346;18.562;2023-02-15T19:24:20;101343.61;;;2.09;96.88
57024;BME280;42916;54.346;18.562;2023-02-15T19:26:51;101344.32;;;2.10;97.12
57024;BME280;42916;54.346;18.562;2023-02-15T19:32:49;101327.02;;;2.12;96.77
57024;BME280;42916;54.346;18.562;2023-02-15T19:35:37;101322.20;;;2.13;96.63
57024;BME280;42916;54.346;18.562;2023-02-15T19:38:11;101319.38;;;2.14;96.99
57024;BME280;42916;54.346;18.562;2023-02-15T19:40:40;101319.64;;;2.15;97.17
57024;BME280;42916;54.346;18.562;2023-02-15T19:43:29;101316.72;;;2.17;97.16
57024;BME280;42916;54.346;18.562;2023-02-15T19:45:56;101317.48;;;2.17;96.88
57024;BME280;42916;54.346;18.562;2023-02-15T19:48:54;101323.70;;;2.17;96.79
57024;BME280;42916;54.346;18.562;2023-02-15T19:51:43;101316.15;;;2.20;96.80
57024;BME280;42916;54.346;18.562;2023-02-15T19:54:44;101314.57;;;2.22;96.69
57024;BME280;42916;54.346;18.562;2023-02-15T20:03:09;101305.91;;;2.18;96.98
57024;BME280;42916;54.346;18.562;2023-02-15T20:05:36;101308.03;;;2.17;97.00
57024;BME280;42916;54.346;18.562;2023-02-15T20:08:52;101301.31;;;2.16;96.90
57024;BME280;42916;54.346;18.562;2023-02-15T20:11:22;101296.06;;;2.17;96.65
57024;BME280;42916;54.346;18.562;2023-02-15T20:16:45;101298.13;;;2.17;96.83
57024;BME280;42916;54.346;18.562;2023-02-15T20:19:33;101297.73;;;2.16;96.74
57024;BME280;42916;54.346;18.562;2023-02-15T20:22:09;101302.23;;;2.14;96.87
57024;BME280;42916;54.346;18.562;2023-02-15T20:28:17;101303.23;;;2.07;97.04
57024;BME280;42916;54.346;18.562;2023-02-15T20:30:56;101297.31;;;2.04;96.65
57024;BME280;42916;54.346;18.562;2023-02-15T20:33:36;101297.60;;;2.05;97.11
57024;BME280;42916;54.346;18.562;2023-02-15T20:36:13;101296.29;;;2.07;96.85
57024;BME280;42916;54.346;18.562;2023-02-15T20:38:40;101291.20;;;2.09;97.36
57024;BME280;42916;54.346;18.562;2023-02-15T20:44:43;101287.48;;;2.09;97.33
57024;BME280;42916;54.346;18.562;2023-02-15T20:48:10;101286.17;;;2.07;97.39
57024;BME280;42916;54.346;18.562;2023-02-15T20:50:40;101275.24;;;2.08;97.48
57024;BME280;42916;54.346;18.562;2023-02-15T20:53:16;101275.30;;;2.10;97.58
57024;BME280;42916;54.346;18.562;2023-02-15T20:56:31;101281.73;;;2.12;97.59
57024;BME280;42916;54.346;18.562;2023-02-15T20:59:24;101277.42;;;2.14;97.42
57024;BME280;42916;54.346;18.562;2023-02-15T21:02:20;101272.35;;;2.14;97.78
57024;BME280;42916;54.346;18.562;2023-02-15T21:04:49;101264.80;;;2.15;98.03
57024;BME280;42916;54.346;18.562;2023-02-15T21:07:22;101262.09;;;2.13;97.63
57024;BME280;42916;54.346;18.562;2023-02-15T21:09:49;101267.47;;;2.15;98.00
57024;BME280;42916;54.346;18.562;2023-02-15T21:12:29;101268.70;;;2.16;97.81
57024;BME280;42916;54.346;18.562;2023-02-15T21:14:59;101270.37;;;2.19;97.89
57024;BME280;42916;54.346;18.562;2023-02-15T21:17:29;101266.98;;;2.19;98.28
57024;BME280;42916;54.346;18.562;2023-02-15T21:20:00;101265.09;;;2.19;98.43
57024;BME280;42916;54.346;18.562;2023-02-15T21:22:35;101265.52;;;2.20;98.42
57024;BME280;42916;54.346;18.562;2023-02-15T21:25:11;101263.38;;;2.21;98.60
57024;BME280;42916;54.346;18.562;2023-02-15T21:27:49;101267.95;;;2.24;98.79
57024;BME280;42916;54.346;18.562;2023-02-15T21:30:22;101263.02;;;2.29;98.66
57024;BME280;42916;54.346;18.562;2023-02-15T21:33:09;101262.16;;;2.31;98.56
57024;BME280;42916;54.346;18.562;2023-02-15T21:35:36;101261.11;;;2.33;98.77
57024;BME280;42916;54.346;18.562;2023-02-15T21:38:05;101254.19;;;2.34;99.00
57024;BME280;42916;54.346;18.562;2023-02-15T21:40:32;101251.11;;;2.35;99.09
57024;BME280;42916;54.346;18.562;2023-02-15T21:42:59;101250.30;;;2.36;99.30
57024;BME280;42916;54.346;18.562;2023-02-15T21:45:48;101249.45;;;2.39;98.95
57024;BME280;42916;54.346;18.562;2023-02-15T21:48:36;101240.63;;;2.41;99.15
57024;BME280;42916;54.346;18.562;2023-02-15T21:51:03;101238.84;;;2.45;99.43
57024;BME280;42916;54.346;18.562;2023-02-15T21:54:10;101242.15;;;2.48;99.54
57024;BME280;42916;54.346;18.562;2023-02-15T21:56:55;101237.48;;;2.46;99.30
57024;BME280;42916;54.346;18.562;2023-02-15T21:59:25;101234.46;;;2.44;99.25
57024;BME280;42916;54.346;18.562;2023-02-15T22:02:40;101228.25;;;2.44;99.38
57024;BME280;42916;54.346;18.562;2023-02-15T22:05:00;101231.33;;;2.45;99.39
57024;BME280;42916;54.346;18.562;2023-02-15T22:07:27;101228.27;;;2.47;99.00
57024;BME280;42916;54.346;18.562;2023-02-15T22:09:54;101227.08;;;2.48;99.43
57024;BME280;42916;54.346;18.562;2023-02-15T22:12:21;101224.81;;;2.49;99.61
57024;BME280;42916;54.346;18.562;2023-02-15T22:14:52;101223.30;;;2.50;99.83
57024;BME280;42916;54.346;18.562;2023-02-15T22:17:24;101221.63;;;2.50;99.77
57024;BME280;42916;54.346;18.562;2023-02-15T22:19:51;101223.91;;;2.49;99.53
57024;BME280;42916;54.346;18.562;2023-02-15T22:22:18;101222.57;;;2.50;99.89
57024;BME280;42916;54.346;18.562;2023-02-15T22:24:45;101222.11;;;2.52;99.37
57024;BME280;42916;54.346;18.562;2023-02-15T22:27:23;101219.10;;;2.55;99.71
57024;BME280;42916;54.346;18.562;2023-02-15T22:29:52;101213.99;;;2.57;99.66
57024;BME280;42916;54.346;18.562;2023-02-15T22:32:21;101216.70;;;2.58;99.92
57024;BME280;42916;54.346;18.562;2023-02-15T22:34:50;101213.81;;;2.60;99.91
57024;BME280;42916;54.346;18.562;2023-02-15T22:37:17;101214.59;;;2.59;99.88
57024;BME280;42916;54.346;18.562;2023-02-15T22:39:44;101212.33;;;2.59;99.84
57024;BME280;42916;54.346;18.562;2023-02-15T22:42:20;101209.95;;;2.58;99.65
57024;BME280;42916;54.346;18.562;2023-02-15T22:44:51;101212.45;;;2.58;99.61
57024;BME280;42916;54.346;18.562;2023-02-15T22:47:21;101209.20;;;2.56;99.53
57024;BME280;42916;54.346;18.562;2023-02-15T22:49:48;101206.78;;;2.57;99.53
57024;BME280;42916;54.346;18.562;2023-02-15T22:52:15;101202.17;;;2.59;99.76
57024;BME280;42916;54.346;18.562;2023-02-15T22:54:43;101201.09;;;2.58;99.94
57024;BME280;42916;54.346;18.562;2023-02-15T22:57:20;101192.68;;;2.59;99.92
57024;BME280;42916;54.346;18.562;2023-02-15T22:59:48;101188.46;;;2.56;99.86
57024;BME280;42916;54.346;18.562;2023-02-15T23:02:16;101188.17;;;2.54;99.93
57024;BME280;42916;54.346;18.562;2023-02-15T23:04:43;101186.86;;;2.53;99.96
57024;BME280;42916;54.346;18.562;2023-02-15T23:07:16;101180.52;;;2.55;99.94
57024;BME280;42916;54.346;18.562;2023-02-15T23:09:44;101181.08;;;2.58;99.94
57024;BME280;42916;54.346;18.562;2023-02-15T23:12:23;101176.41;;;2.60;99.82
57024;BME280;42916;54.346;18.562;2023-02-15T23:14:51;101176.81;;;2.62;99.88
57024;BME280;42916;54.346;18.562;2023-02-15T23:17:19;101174.48;;;2.59;99.93
57024;BME280;42916;54.346;18.562;2023-02-15T23:19:46;101175.30;;;2.59;99.95
57024;BME280;42916;54.346;18.562;2023-02-15T23:22:14;101167.80;;;2.59;99.98
57024;BME280;42916;54.346;18.562;2023-02-15T23:24:48;101162.05;;;2.59;100.00
57024;BME280;42916;54.346;18.562;2023-02-15T23:27:17;101164.13;;;2.59;99.95
57024;BME280;42916;54.346;18.562;2023-02-15T23:30:05;101164.86;;;2.59;99.99
57024;BME280;42916;54.346;18.562;2023-02-15T23:32:32;101162.97;;;2.60;99.95
57024;BME280;42916;54.346;18.562;2023-02-15T23:34:59;101163.66;;;2.59;100.00
57024;BME280;42916;54.346;18.562;2023-02-15T23:37:26;101157.63;;;2.57;99.94